createdAt,value
2018-04-28T00:01:01.484Z,68.50
2018-04-28T00:03:34.079Z,68.40
2018-04-28T00:06:06.737Z,68.80
2018-04-28T00:08:41.971Z,68.60
2018-04-28T00:11:14.590Z,68.80
2018-04-28T00:13:47.193Z,69.70
2018-04-28T00:16:25.778Z,69.70
2018-04-28T00:19:07.857Z,69.90
2018-04-28T00:24:46.084Z,70.10
2018-04-28T00:27:24.215Z,69.20
2018-04-28T00:30:03.334Z,69.30
2018-04-28T00:32:36.831Z,69.60
2018-04-28T00:35:14.054Z,69.80
2018-04-28T00:37:47.379Z,69.70
2018-04-28T00:40:28.713Z,69.70
2018-04-28T00:43:03.108Z,70.10
2018-04-28T00:45:37.526Z,70.90
2018-04-28T00:48:12.905Z,70.00
2018-04-28T00:50:47.197Z,69.50
2018-04-28T00:53:21.316Z,69.30
2018-04-28T00:55:53.971Z,69.20
2018-04-28T00:58:31.097Z,70.10
2018-04-28T01:01:10.388Z,69.70
2018-04-28T01:03:44.591Z,69.50
2018-04-28T01:06:17.963Z,69.40
2018-04-28T01:08:50.591Z,69.40
2018-04-28T01:11:25.749Z,69.20
2018-04-28T01:13:58.384Z,68.90
2018-04-28T01:16:33.315Z,69.30
2018-04-28T01:19:23.679Z,69.00
2018-04-28T01:22:00.914Z,69.80
2018-04-28T01:24:37.124Z,69.40
2018-04-28T01:27:15.726Z,69.40
2018-04-28T01:33:15.944Z,71.00
2018-04-28T01:35:50.077Z,70.80
2018-04-28T01:38:40.078Z,70.80
2018-04-28T01:44:35.320Z,71.40
2018-04-28T01:47:23.654Z,70.80
2018-04-28T01:49:57.157Z,71.30
2018-04-28T01:52:31.196Z,70.70
2018-04-28T01:55:03.816Z,70.60
2018-04-28T01:57:37.988Z,71.20
2018-04-28T02:00:23.105Z,71.20
2018-04-28T02:03:00.549Z,71.20
2018-04-28T02:05:36.068Z,71.10
2018-04-28T02:08:12.226Z,70.60
2018-04-28T02:10:52.321Z,71.00
2018-04-28T02:13:25.659Z,71.60
2018-04-28T02:19:07.286Z,71.60
2018-04-28T02:21:50.524Z,71.70
2018-04-28T02:24:28.551Z,71.70
2018-04-28T02:27:20.635Z,71.40
2018-04-28T02:29:56.512Z,71.60
2018-04-28T02:32:29.942Z,71.50
2018-04-28T02:35:21.315Z,71.50
2018-04-28T02:38:04.670Z,71.50
2018-04-28T02:40:39.892Z,71.70
2018-04-28T02:43:12.504Z,71.70
2018-04-28T02:45:50.883Z,71.70
2018-04-28T02:48:25.100Z,71.90
2018-04-28T02:51:10.207Z,71.70
2018-04-28T02:53:48.102Z,71.60
2018-04-28T02:56:29.511Z,71.60
2018-04-28T02:59:08.634Z,71.60
2018-04-28T03:01:46.619Z,72.50
2018-04-28T03:04:21.851Z,72.50
2018-04-28T03:06:57.092Z,72.40
2018-04-28T03:09:29.717Z,72.20
2018-04-28T03:12:03.160Z,72.10
2018-04-28T03:14:38.201Z,72.00
2018-04-28T03:17:12.268Z,72.40
2018-04-28T03:19:44.877Z,72.40
2018-04-28T03:22:19.295Z,72.60
2018-04-28T03:24:55.416Z,72.60
2018-04-28T03:30:46.702Z,72.60
2018-04-28T03:33:22.771Z,72.40
2018-04-28T03:35:58.674Z,72.50
2018-04-28T03:38:37.269Z,72.40
2018-04-28T03:41:19.815Z,72.90
2018-04-28T03:43:54.915Z,73.30
2018-04-28T03:46:28.244Z,73.20
2018-04-28T03:49:06.549Z,73.30
2018-04-28T03:51:44.960Z,73.10
2018-04-28T03:54:19.049Z,73.50
2018-04-28T04:00:10.425Z,74.00
2018-04-28T04:02:54.992Z,73.20
2018-04-28T04:08:45.568Z,74.50
2018-04-28T04:11:24.853Z,73.80
2018-04-28T04:14:01.956Z,73.70
2018-04-28T04:20:23.647Z,74.70
2018-04-28T04:23:01.520Z,74.20
2018-04-28T04:25:40.864Z,74.20
2018-04-28T04:28:18.044Z,74.40
2018-04-28T04:31:01.388Z,74.90
2018-04-28T04:33:39.400Z,74.90
2018-04-28T04:39:30.699Z,74.90
2018-04-28T04:42:07.095Z,76.20
2018-04-28T04:44:47.185Z,76.10
2018-04-28T04:47:32.520Z,75.80
2018-04-28T04:50:20.875Z,75.80
2018-04-28T04:56:21.388Z,77.00
2018-04-28T05:02:31.767Z,77.50
2018-04-28T05:05:10.176Z,77.00
2018-04-28T05:10:58.799Z,77.10
2018-04-28T05:13:40.631Z,79.10
2018-04-28T05:16:20.105Z,79.50
2018-04-28T05:18:53.491Z,83.20
2018-04-28T05:24:54.166Z,85.20
2018-04-28T05:27:35.191Z,84.40
2018-04-28T05:30:19.544Z,82.60
2018-04-28T05:32:56.677Z,81.20
2018-04-28T05:39:04.207Z,84.00
2018-04-28T05:41:48.657Z,84.30
2018-04-28T05:47:36.397Z,85.20
2018-04-28T05:50:18.555Z,81.70
2018-04-28T05:53:10.865Z,81.70
2018-04-28T05:55:54.948Z,81.60
2018-04-28T06:01:45.632Z,80.10
2018-04-28T06:04:43.109Z,79.30
2018-04-28T06:07:23.276Z,78.60
2018-04-28T06:10:04.643Z,78.60
2018-04-28T06:12:44.999Z,77.90
2018-04-28T06:15:29.292Z,78.00
2018-04-28T06:21:12.263Z,74.50
2018-04-28T06:23:44.882Z,73.40
2018-04-28T06:26:17.503Z,75.20
2018-04-28T06:28:50.896Z,71.00
2018-04-28T06:31:23.564Z,71.00
2018-04-28T06:33:57.012Z,71.10
2018-04-28T06:36:30.379Z,69.70
2018-04-28T06:39:03.039Z,69.60
2018-04-28T06:41:35.769Z,69.50
2018-04-28T06:44:08.444Z,68.10
2018-04-28T06:46:41.147Z,70.00
2018-04-28T06:49:13.865Z,67.90
2018-04-28T06:51:46.483Z,66.20
2018-04-28T06:54:19.205Z,65.80
2018-04-28T06:56:51.955Z,65.50
2018-04-28T06:59:25.602Z,68.60
2018-04-28T07:01:59.714Z,67.10
2018-04-28T07:04:32.518Z,67.40
2018-04-28T07:07:05.138Z,67.60
2018-04-28T07:09:37.942Z,68.70
2018-04-28T07:12:10.658Z,69.20
2018-04-28T07:14:43.287Z,68.30
2018-04-28T07:17:16.659Z,65.40
2018-04-28T07:19:49.305Z,65.40
2018-04-28T07:22:22.132Z,65.80
2018-04-28T07:24:54.888Z,62.90
2018-04-28T07:27:27.484Z,64.30
2018-04-28T07:30:00.168Z,64.20
2018-04-28T07:32:32.779Z,61.60
2018-04-28T07:35:05.391Z,61.60
2018-04-28T07:37:37.998Z,61.50
2018-04-28T07:40:10.623Z,62.40
2018-04-28T07:42:43.991Z,61.20
2018-04-28T07:45:16.616Z,61.10
2018-04-28T07:47:50.034Z,61.70
2018-04-28T07:50:23.429Z,61.60
2018-04-28T07:52:56.037Z,61.60
2018-04-28T07:55:29.518Z,62.70
2018-04-28T07:58:02.132Z,62.70
2018-04-28T08:00:35.535Z,61.20
2018-04-28T08:03:08.132Z,61.20
2018-04-28T08:05:41.515Z,60.40
2018-04-28T08:08:14.164Z,60.80
2018-04-28T08:10:46.788Z,61.00
2018-04-28T08:13:19.419Z,61.40
2018-04-28T08:15:52.849Z,59.80
2018-04-28T08:18:25.476Z,59.80
2018-04-28T08:20:58.110Z,58.50
2018-04-28T08:23:31.480Z,57.90
2018-04-28T08:26:04.107Z,57.80
2018-04-28T08:28:36.707Z,53.90
2018-04-28T08:31:10.016Z,54.10
2018-04-28T08:33:43.403Z,56.70
2018-04-28T08:36:16.036Z,56.70
2018-04-28T08:38:48.664Z,54.60
2018-04-28T08:41:21.298Z,54.40
2018-04-28T08:43:54.654Z,54.60
2018-04-28T08:46:27.281Z,54.50
2018-04-28T08:48:59.878Z,58.60
2018-04-28T08:51:32.500Z,55.20
2018-04-28T08:54:05.123Z,55.20
2018-04-28T08:56:38.586Z,61.90
2018-04-28T08:59:11.148Z,61.80
2018-04-28T09:01:43.768Z,56.70
2018-04-28T09:04:17.143Z,53.90
2018-04-28T09:06:55.583Z,53.90
2018-04-28T09:09:28.187Z,54.20
2018-04-28T09:12:01.580Z,53.90
2018-04-28T09:14:34.183Z,53.30
2018-04-28T09:17:06.802Z,50.70
2018-04-28T09:19:39.461Z,51.60
2018-04-28T09:22:12.043Z,51.90
2018-04-28T09:24:44.672Z,52.20
2018-04-28T09:27:17.286Z,48.10
2018-04-28T09:29:50.412Z,50.90
2018-04-28T09:32:23.036Z,51.30
2018-04-28T09:34:55.649Z,48.90
2018-04-28T09:37:28.272Z,47.40
2018-04-28T09:40:01.699Z,45.90
2018-04-28T09:42:34.279Z,46.10
2018-04-28T09:45:06.887Z,45.00
2018-04-28T09:47:39.507Z,44.10
2018-04-28T09:50:12.876Z,41.50
2018-04-28T09:52:45.503Z,41.50
2018-04-28T09:55:18.122Z,43.30
2018-04-28T09:58:02.734Z,42.90
2018-04-28T10:00:35.324Z,43.60
2018-04-28T10:03:07.943Z,41.80
2018-04-28T10:05:40.540Z,44.80
2018-04-28T10:08:13.156Z,42.00
2018-04-28T10:10:45.753Z,45.30
2018-04-28T10:13:18.371Z,39.60
2018-04-28T10:15:50.975Z,39.00
2018-04-28T10:18:23.606Z,40.50
2018-04-28T10:20:56.972Z,40.80
2018-04-28T10:23:29.624Z,40.90
2018-04-28T10:26:02.219Z,39.80
2018-04-28T10:28:34.876Z,43.00
2018-04-28T10:31:07.483Z,40.40
2018-04-28T10:33:40.866Z,37.60
2018-04-28T10:36:13.480Z,37.60
2018-04-28T10:38:46.099Z,40.40
2018-04-28T10:41:18.703Z,40.00
2018-04-28T10:43:51.327Z,36.80
2018-04-28T10:46:23.934Z,36.40
2018-04-28T10:48:56.551Z,38.70
2018-04-28T10:51:29.150Z,38.40
2018-04-28T10:54:02.630Z,37.40
2018-04-28T10:56:35.242Z,37.70
2018-04-28T10:59:07.876Z,37.30
2018-04-28T11:01:40.479Z,36.00
2018-04-28T11:04:16.838Z,37.60
2018-04-28T11:06:49.479Z,38.60
2018-04-28T11:09:22.855Z,39.40
2018-04-28T11:11:55.487Z,38.70
2018-04-28T11:14:28.088Z,37.60
2018-04-28T11:17:01.476Z,35.80
2018-04-28T11:19:34.845Z,36.20
2018-04-28T11:22:07.476Z,36.10
2018-04-28T11:24:40.085Z,40.00
2018-04-28T11:27:12.715Z,39.20
2018-04-28T11:29:45.317Z,37.80
2018-04-28T11:32:17.947Z,35.50
2018-04-28T11:34:51.310Z,37.50
2018-04-28T11:37:23.930Z,36.90
2018-04-28T11:39:56.529Z,36.40
2018-04-28T11:42:29.159Z,38.80
2018-04-28T11:45:01.764Z,37.80
2018-04-28T11:47:34.388Z,36.20
2018-04-28T11:50:06.996Z,33.40
2018-04-28T11:52:39.615Z,34.10
2018-04-28T11:55:12.215Z,34.20
2018-04-28T11:57:44.839Z,32.60
2018-04-28T12:00:17.451Z,32.60
2018-04-28T12:02:50.080Z,33.00
2018-04-28T12:05:22.671Z,32.80
2018-04-28T12:07:55.295Z,32.80
2018-04-28T12:10:27.890Z,33.60
2018-04-28T12:13:00.503Z,31.80
2018-04-28T12:15:33.102Z,32.20
2018-04-28T12:18:05.715Z,33.90
2018-04-28T12:20:39.071Z,32.90
2018-04-28T12:23:11.679Z,32.80
2018-04-28T12:25:44.278Z,32.20
2018-04-28T12:28:16.895Z,33.40
2018-04-28T12:30:50.251Z,32.10
2018-04-28T12:33:22.865Z,32.20
2018-04-28T12:35:55.490Z,33.60
2018-04-28T12:38:28.176Z,33.00
2018-04-28T12:41:01.536Z,30.90
2018-04-28T12:43:34.176Z,30.80
2018-04-28T12:46:06.771Z,32.50
2018-04-28T12:48:39.378Z,30.60
2018-04-28T12:51:11.969Z,31.10
2018-04-28T12:53:44.590Z,30.70
2018-04-28T12:56:17.180Z,30.00
2018-04-28T12:58:49.804Z,30.70
2018-04-28T13:01:22.409Z,29.90
2018-04-28T13:03:55.811Z,29.20
2018-04-28T13:06:28.473Z,29.20
2018-04-28T13:09:01.091Z,29.80
2018-04-28T13:11:33.684Z,31.10
2018-04-28T13:14:06.320Z,31.30
2018-04-28T13:16:38.919Z,34.00
2018-04-28T13:19:11.536Z,33.20
2018-04-28T13:21:44.130Z,30.80
2018-04-28T13:24:16.747Z,31.40
2018-04-28T13:26:50.154Z,31.20
2018-04-28T13:29:22.762Z,31.00
2018-04-28T13:31:55.376Z,31.00
2018-04-28T13:34:28.007Z,30.00
2018-04-28T13:37:00.604Z,31.60
2018-04-28T13:39:33.231Z,33.60
2018-04-28T13:42:06.595Z,31.30
2018-04-28T13:44:39.220Z,31.10
2018-04-28T13:47:11.823Z,30.10
2018-04-28T13:49:44.430Z,33.30
2018-04-28T13:52:17.032Z,33.80
2018-04-28T13:54:49.652Z,33.00
2018-04-28T13:57:22.256Z,32.20
2018-04-28T13:59:54.880Z,31.50
2018-04-28T14:02:27.475Z,31.40
2018-04-28T14:05:00.091Z,31.30
2018-04-28T14:07:32.690Z,32.60
2018-04-28T14:10:05.311Z,32.30
2018-04-28T14:12:37.900Z,33.60
2018-04-28T14:15:10.526Z,31.90
2018-04-28T14:17:43.892Z,32.60
2018-04-28T14:20:16.518Z,32.60
2018-04-28T14:22:49.880Z,32.80
2018-04-28T14:25:22.502Z,32.80
2018-04-28T14:27:55.100Z,31.60
2018-04-28T14:30:27.728Z,31.10
2018-04-28T14:33:00.317Z,32.90
2018-04-28T14:35:32.926Z,32.90
2018-04-28T14:38:05.557Z,29.80
2018-04-28T14:40:38.183Z,32.20
2018-04-28T14:43:10.782Z,34.20
2018-04-28T14:45:43.404Z,33.60
2018-04-28T14:48:16.012Z,31.50
2018-04-28T14:50:48.624Z,30.80
2018-04-28T14:53:21.988Z,31.10
2018-04-28T14:55:54.625Z,31.00
2018-04-28T14:58:28.001Z,29.90
2018-04-28T15:01:00.630Z,30.00
2018-04-28T15:03:33.224Z,30.90
2018-04-28T15:06:06.603Z,29.20
2018-04-28T15:08:39.222Z,29.10
2018-04-28T15:11:12.611Z,32.80
2018-04-28T15:13:45.207Z,32.80
2018-04-28T15:16:17.823Z,31.60
2018-04-28T15:18:51.192Z,29.00
2018-04-28T15:21:23.820Z,29.00
2018-04-28T15:23:57.298Z,30.10
2018-04-28T15:26:29.914Z,28.80
2018-04-28T15:29:02.521Z,29.00
2018-04-28T15:31:35.140Z,29.10
2018-04-28T15:34:07.743Z,30.00
2018-04-28T15:36:40.362Z,28.70
2018-04-28T15:39:12.951Z,28.40
2018-04-28T15:41:45.562Z,28.30
2018-04-28T15:44:18.916Z,30.10
2018-04-28T15:46:51.531Z,30.10
2018-04-28T15:49:24.119Z,27.20
2018-04-28T15:51:56.754Z,27.30
2018-04-28T15:54:29.391Z,27.10
2018-04-28T15:57:01.991Z,27.70
2018-04-28T15:59:34.599Z,27.50
2018-04-28T16:02:07.207Z,28.40
2018-04-28T16:04:40.588Z,28.70
2018-04-28T16:07:13.189Z,28.70
2018-04-28T16:09:46.578Z,28.80
2018-04-28T16:12:19.784Z,28.80
2018-04-28T16:14:52.456Z,28.80
2018-04-28T16:17:25.787Z,28.90
2018-04-28T16:19:58.455Z,28.60
2018-04-28T16:22:31.872Z,30.00
2018-04-28T16:25:04.488Z,29.70
2018-04-28T16:27:37.086Z,28.80
2018-04-28T16:30:09.706Z,29.90
2018-04-28T16:32:42.320Z,30.50
2018-04-28T16:35:14.939Z,30.60
2018-04-28T16:37:47.546Z,30.80
2018-04-28T16:40:20.336Z,29.60
2018-04-28T16:42:53.726Z,31.00
2018-04-28T16:45:26.345Z,31.00
2018-04-28T16:47:58.944Z,31.00
2018-04-28T16:50:31.672Z,31.10
2018-04-28T16:53:04.276Z,32.00
2018-04-28T16:55:36.915Z,30.00
2018-04-28T16:58:09.520Z,30.90
2018-04-28T17:00:42.287Z,31.00
2018-04-28T17:03:14.895Z,32.10
2018-04-28T17:05:47.512Z,32.70
2018-04-28T17:08:20.876Z,32.60
2018-04-28T17:10:53.486Z,32.50
2018-04-28T17:13:26.083Z,32.50
2018-04-28T17:15:58.697Z,33.50
2018-04-28T17:18:31.295Z,32.40
2018-04-28T17:21:03.919Z,35.30
2018-04-28T17:23:36.513Z,34.60
2018-04-28T17:26:09.127Z,33.90
2018-04-28T17:28:41.787Z,34.90
2018-04-28T17:31:14.410Z,35.10
2018-04-28T17:33:47.016Z,34.40
2018-04-28T17:36:19.639Z,35.20
2018-04-28T17:38:52.322Z,35.70
2018-04-28T17:41:24.951Z,36.00
2018-04-28T17:43:57.564Z,34.90
2018-04-28T17:46:30.183Z,33.70
2018-04-28T17:49:03.610Z,34.90
2018-04-28T17:51:36.232Z,34.90
2018-04-28T17:54:08.827Z,35.70
2018-04-28T17:56:41.448Z,36.80
2018-04-28T17:59:14.047Z,36.80
2018-04-28T18:01:46.669Z,37.80
2018-04-28T18:04:20.040Z,39.50
2018-04-28T18:06:52.670Z,39.50
2018-04-28T18:09:25.388Z,40.10
2018-04-28T18:11:57.935Z,40.30
2018-04-28T18:14:31.310Z,41.10
2018-04-28T18:17:03.946Z,41.10
2018-04-28T18:19:36.543Z,41.30
2018-04-28T18:22:09.162Z,41.70
2018-04-28T18:24:41.763Z,41.90
2018-04-28T18:27:14.391Z,42.10
2018-04-28T18:29:46.984Z,42.60
2018-04-28T18:32:19.650Z,43.30
2018-04-28T18:34:52.262Z,42.90
2018-04-28T18:37:25.718Z,43.30
2018-04-28T18:39:58.318Z,43.30
2018-04-28T18:42:30.940Z,43.60
2018-04-28T18:45:03.532Z,44.20
2018-04-28T18:47:36.219Z,45.00
2018-04-28T18:50:08.814Z,44.50
2018-04-28T18:52:41.435Z,43.10
2018-04-28T18:55:14.042Z,44.80
2018-04-28T18:57:46.647Z,44.80
2018-04-28T19:00:19.240Z,44.30
2018-04-28T19:02:51.855Z,44.20
2018-04-28T19:05:24.446Z,44.60
2018-04-28T19:07:57.058Z,44.60
2018-04-28T19:10:29.660Z,43.90
2018-04-28T19:13:02.300Z,43.80
2018-04-28T19:15:35.908Z,44.20
2018-04-28T19:18:08.527Z,45.30
2018-04-28T19:20:41.139Z,44.90
2018-04-28T19:23:13.938Z,45.50
2018-04-28T19:25:47.323Z,46.00
2018-04-28T19:28:20.573Z,45.90
2018-04-28T19:30:54.007Z,46.20
2018-04-28T19:33:26.648Z,46.10
2018-04-28T19:35:59.276Z,47.20
2018-04-28T19:38:33.566Z,47.90
2018-04-28T19:41:06.251Z,49.00
2018-04-28T19:43:38.936Z,49.60
2018-04-28T19:46:11.643Z,50.40
2018-04-28T19:48:44.721Z,50.50
2018-04-28T19:51:17.404Z,50.60
2018-04-28T19:53:50.087Z,50.80
2018-04-28T19:56:23.617Z,50.80
2018-04-28T19:58:56.239Z,51.00
2018-04-28T20:01:28.856Z,51.50
2018-04-28T20:04:01.609Z,52.20
2018-04-28T20:06:34.211Z,52.00
2018-04-28T20:09:06.878Z,52.60
2018-04-28T20:11:51.947Z,52.60
2018-04-28T20:14:24.554Z,52.20
2018-04-28T20:16:57.174Z,52.10
2018-04-28T20:19:29.822Z,52.60
2018-04-28T20:22:14.413Z,52.40
2018-04-28T20:24:58.845Z,52.50
2018-04-28T20:27:32.309Z,53.20
2018-04-28T20:30:05.090Z,53.10
2018-04-28T20:32:38.451Z,53.00
2018-04-28T20:35:11.823Z,53.50
2018-04-28T20:37:44.597Z,53.40
2018-04-28T20:40:17.212Z,53.20
2018-04-28T20:42:49.853Z,53.40
2018-04-28T20:45:22.471Z,53.80
2018-04-28T20:47:55.091Z,53.50
2018-04-28T20:50:27.696Z,53.50
2018-04-28T20:53:00.371Z,53.60
2018-04-28T20:55:32.999Z,53.60
2018-04-28T20:58:06.380Z,54.20
2018-04-28T21:00:38.972Z,54.10
2018-04-28T21:03:11.587Z,54.30
2018-04-28T21:05:44.187Z,55.00
2018-04-28T21:08:17.587Z,54.50
2018-04-28T21:10:52.156Z,54.50
2018-04-28T21:13:24.786Z,54.70
2018-04-28T21:15:57.391Z,54.90
2018-04-28T21:18:30.015Z,55.10
2018-04-28T21:21:02.628Z,54.90
2018-04-28T21:23:35.239Z,54.80
2018-04-28T21:26:07.840Z,55.00
2018-04-28T21:28:40.455Z,55.10
2018-04-28T21:31:13.054Z,55.30
2018-04-28T21:33:45.701Z,55.20
2018-04-28T21:36:18.318Z,55.50
2018-04-28T21:38:50.931Z,56.10
2018-04-28T21:41:24.292Z,55.90
2018-04-28T21:43:57.690Z,56.00
2018-04-28T21:46:30.294Z,56.00
2018-04-28T21:49:02.915Z,56.30
2018-04-28T21:51:35.511Z,56.40
2018-04-28T21:54:08.151Z,56.40
2018-04-28T21:56:40.743Z,56.30
2018-04-28T21:59:13.364Z,55.90
2018-04-28T22:01:45.959Z,56.90
2018-04-28T22:04:18.584Z,58.90
2018-04-28T22:06:51.176Z,60.00
2018-04-28T22:09:24.613Z,59.30
2018-04-28T22:11:57.214Z,59.10
2018-04-28T22:14:29.839Z,59.10
2018-04-28T22:17:02.457Z,59.40
2018-04-28T22:19:35.843Z,59.20
2018-04-28T22:22:08.437Z,59.20
2018-04-28T22:24:41.060Z,58.90
2018-04-28T22:27:14.426Z,58.90
2018-04-28T22:29:47.045Z,58.90
2018-04-28T22:32:19.639Z,58.90
2018-04-28T22:34:53.049Z,59.60
2018-04-28T22:37:26.413Z,59.70
2018-04-28T22:39:59.022Z,59.70
2018-04-28T22:42:31.623Z,60.40
2018-04-28T22:45:04.257Z,59.90
2018-04-28T22:47:36.856Z,59.80
2018-04-28T22:50:09.472Z,59.90
2018-04-28T22:52:42.071Z,60.20
2018-04-28T22:55:14.703Z,60.20
2018-04-28T22:57:48.080Z,60.20
2018-04-28T23:00:21.491Z,60.20
2018-04-28T23:02:54.112Z,61.20
2018-04-28T23:05:27.510Z,60.70
2018-04-28T23:08:00.111Z,60.70
2018-04-28T23:10:33.507Z,61.20
2018-04-28T23:13:06.101Z,61.10
2018-04-28T23:15:38.719Z,62.30
2018-04-28T23:18:11.319Z,61.70
2018-04-28T23:20:43.951Z,60.80
2018-04-28T23:23:16.543Z,60.70
2018-04-28T23:25:49.204Z,60.60
2018-04-28T23:28:21.807Z,61.40
2018-04-28T23:30:54.423Z,61.20
2018-04-28T23:33:27.011Z,60.20
2018-04-28T23:35:59.646Z,62.10
2018-04-28T23:38:32.249Z,62.10
2018-04-28T23:41:04.863Z,65.50
2018-04-28T23:43:37.454Z,65.90
2018-04-28T23:46:10.067Z,64.70
2018-04-28T23:48:42.654Z,66.10
2018-04-28T23:51:15.279Z,64.90
2018-04-28T23:53:48.634Z,64.20
2018-04-28T23:56:21.263Z,64.10
2018-04-28T23:58:53.859Z,64.00
